sensor_id;sensor_type;location;lat;lon;timestamp;pressure;altitude;pressure_sealevel;temperature;humidity
35045;BME280;21231;48.394;34.964;2023-03-13T00:01:45;100080.16;;;-1.84;100.00
35045;BME280;21231;48.394;34.964;2023-03-13T00:04:17;100080.47;;;-1.81;100.00
35045;BME280;21231;48.394;34.964;2023-03-13T00:06:46;100084.13;;;-1.87;100.00
35045;BME280;21231;48.394;34.964;2023-03-13T00:09:15;100086.66;;;-1.87;100.00
35045;BME280;21231;48.394;34.964;2023-03-13T00:11:44;100086.81;;;-1.85;100.00
35045;BME280;21231;48.394;34.964;2023-03-13T00:14:13;100086.66;;;-1.87;100.00
35045;BME280;21231;48.394;34.964;2023-03-13T00:16:41;100086.22;;;-1.91;100.00
35045;BME280;21231;48.394;34.964;2023-03-13T00:19:10;100074.75;;;-1.96;100.00
35045;BME280;21231;48.394;34.964;2023-03-13T00:21:38;100065.72;;;-2.10;100.00
35045;BME280;21231;48.394;34.964;2023-03-13T00:24:10;100084.97;;;-1.95;100.00
35045;BME280;21231;48.394;34.964;2023-03-13T00:26:39;100086.50;;;-1.88;100.00
35045;BME280;21231;48.394;34.964;2023-03-13T00:29:10;100099.53;;;-1.92;100.00
35045;BME280;21231;48.394;34.964;2023-03-13T00:31:38;100098.28;;;-2.05;100.00
35045;BME280;21231;48.394;34.964;2023-03-13T00:34:08;100089.31;;;-2.10;100.00
35045;BME280;21231;48.394;34.964;2023-03-13T00:36:37;100096.47;;;-2.06;100.00
35045;BME280;21231;48.394;34.964;2023-03-13T00:39:05;100106.00;;;-2.03;100.00
35045;BME280;21231;48.394;34.964;2023-03-13T00:41:35;100103.59;;;-2.10;100.00
35045;BME280;21231;48.394;34.964;2023-03-13T00:44:04;100104.75;;;-2.16;100.00
35045;BME280;21231;48.394;34.964;2023-03-13T00:46:33;100108.25;;;-2.22;100.00
35045;BME280;21231;48.394;34.964;2023-03-13T00:49:02;100119.31;;;-2.29;100.00
35045;BME280;21231;48.394;34.964;2023-03-13T00:51:33;100124.22;;;-2.31;100.00
35045;BME280;21231;48.394;34.964;2023-03-13T00:54:02;100122.81;;;-2.36;100.00
35045;BME280;21231;48.394;34.964;2023-03-13T00:56:32;100118.50;;;-2.37;100.00
35045;BME280;21231;48.394;34.964;2023-03-13T00:59:01;100126.75;;;-2.31;100.00
35045;BME280;21231;48.394;34.964;2023-03-13T01:01:32;100129.56;;;-2.28;100.00
35045;BME280;21231;48.394;34.964;2023-03-13T01:04:04;100130.97;;;-2.22;100.00
35045;BME280;21231;48.394;34.964;2023-03-13T01:06:36;100130.41;;;-2.20;100.00
35045;BME280;21231;48.394;34.964;2023-03-13T01:09:06;100131.63;;;-2.16;100.00
35045;BME280;21231;48.394;34.964;2023-03-13T01:11:37;100137.41;;;-2.17;100.00
35045;BME280;21231;48.394;34.964;2023-03-13T01:14:10;100136.34;;;-2.19;100.00
35045;BME280;21231;48.394;34.964;2023-03-13T01:16:40;100137.81;;;-2.21;100.00
35045;BME280;21231;48.394;34.964;2023-03-13T01:19:12;100140.75;;;-2.26;100.00
35045;BME280;21231;48.394;34.964;2023-03-13T01:21:43;100142.19;;;-2.28;100.00
35045;BME280;21231;48.394;34.964;2023-03-13T01:24:11;100151.31;;;-2.21;100.00
35045;BME280;21231;48.394;34.964;2023-03-13T01:26:40;100157.59;;;-2.17;100.00
35045;BME280;21231;48.394;34.964;2023-03-13T01:29:08;100153.84;;;-2.21;100.00
35045;BME280;21231;48.394;34.964;2023-03-13T01:31:36;100158.25;;;-2.27;100.00
35045;BME280;21231;48.394;34.964;2023-03-13T01:34:08;100156.13;;;-2.31;100.00
35045;BME280;21231;48.394;34.964;2023-03-13T01:36:37;100171.03;;;-2.26;100.00
35045;BME280;21231;48.394;34.964;2023-03-13T01:39:05;100175.19;;;-2.26;100.00
35045;BME280;21231;48.394;34.964;2023-03-13T01:41:34;100181.94;;;-2.18;100.00
35045;BME280;21231;48.394;34.964;2023-03-13T01:44:05;100183.56;;;-2.18;100.00
35045;BME280;21231;48.394;34.964;2023-03-13T01:46:37;100178.94;;;-2.06;100.00
35045;BME280;21231;48.394;34.964;2023-03-13T01:49:12;100180.22;;;-2.10;100.00
35045;BME280;21231;48.394;34.964;2023-03-13T01:52:09;100180.97;;;-2.11;100.00
35045;BME280;21231;48.394;34.964;2023-03-13T01:57:41;100190.44;;;-2.17;100.00
35045;BME280;21231;48.394;34.964;2023-03-13T02:00:37;100200.19;;;-2.20;100.00
35045;BME280;21231;48.394;34.964;2023-03-13T02:03:12;100194.34;;;-2.28;100.00
35045;BME280;21231;48.394;34.964;2023-03-13T02:05:42;100205.31;;;-2.28;100.00
35045;BME280;21231;48.394;34.964;2023-03-13T02:10:52;100220.81;;;-2.25;100.00
35045;BME280;21231;48.394;34.964;2023-03-13T02:13:24;100224.06;;;-2.26;100.00
35045;BME280;21231;48.394;34.964;2023-03-13T02:15:53;100230.56;;;-2.28;100.00
35045;BME280;21231;48.394;34.964;2023-03-13T02:18:24;100238.13;;;-2.28;100.00
35045;BME280;21231;48.394;34.964;2023-03-13T02:24:06;100251.44;;;-2.21;100.00
35045;BME280;21231;48.394;34.964;2023-03-13T02:26:36;100246.06;;;-2.25;100.00
35045;BME280;21231;48.394;34.964;2023-03-13T02:29:09;100254.44;;;-2.33;100.00
35045;BME280;21231;48.394;34.964;2023-03-13T02:31:46;100260.44;;;-2.40;100.00
35045;BME280;21231;48.394;34.964;2023-03-13T02:34:19;100259.63;;;-2.47;100.00
35045;BME280;21231;48.394;34.964;2023-03-13T02:36:48;100264.75;;;-2.39;100.00
35045;BME280;21231;48.394;34.964;2023-03-13T02:39:20;100260.28;;;-2.41;100.00
35045;BME280;21231;48.394;34.964;2023-03-13T02:41:50;100264.44;;;-2.42;100.00
35045;BME280;21231;48.394;34.964;2023-03-13T02:44:19;100271.16;;;-2.49;100.00
35045;BME280;21231;48.394;34.964;2023-03-13T02:46:50;100259.72;;;-2.62;100.00
35045;BME280;21231;48.394;34.964;2023-03-13T02:49:24;100278.81;;;-2.57;100.00
35045;BME280;21231;48.394;34.964;2023-03-13T02:51:57;100282.59;;;-2.60;100.00
35045;BME280;21231;48.394;34.964;2023-03-13T02:54:33;100284.41;;;-2.59;100.00
35045;BME280;21231;48.394;34.964;2023-03-13T02:57:03;100274.94;;;-2.69;100.00
35045;BME280;21231;48.394;34.964;2023-03-13T02:59:33;100290.72;;;-2.63;100.00
35045;BME280;21231;48.394;34.964;2023-03-13T03:02:02;100300.47;;;-2.66;100.00
35045;BME280;21231;48.394;34.964;2023-03-13T03:04:31;100300.88;;;-2.70;100.00
35045;BME280;21231;48.394;34.964;2023-03-13T03:06:59;100307.66;;;-2.62;100.00
35045;BME280;21231;48.394;34.964;2023-03-13T03:09:28;100302.09;;;-2.59;100.00
35045;BME280;21231;48.394;34.964;2023-03-13T03:12:01;100315.56;;;-2.59;100.00
35045;BME280;21231;48.394;34.964;2023-03-13T03:14:30;100320.13;;;-2.63;100.00
35045;BME280;21231;48.394;34.964;2023-03-13T03:16:59;100322.81;;;-2.62;100.00
35045;BME280;21231;48.394;34.964;2023-03-13T03:19:27;100318.94;;;-2.74;100.00
35045;BME280;21231;48.394;34.964;2023-03-13T03:21:55;100326.84;;;-2.71;100.00
35045;BME280;21231;48.394;34.964;2023-03-13T03:24:24;100321.88;;;-2.79;100.00
35045;BME280;21231;48.394;34.964;2023-03-13T03:26:52;100327.41;;;-2.74;100.00
35045;BME280;21231;48.394;34.964;2023-03-13T03:29:25;100333.34;;;-2.73;100.00
35045;BME280;21231;48.394;34.964;2023-03-13T03:31:55;100340.91;;;-2.73;100.00
35045;BME280;21231;48.394;34.964;2023-03-13T03:34:24;100342.53;;;-2.74;100.00
35045;BME280;21231;48.394;34.964;2023-03-13T03:36:55;100345.47;;;-2.85;100.00
35045;BME280;21231;48.394;34.964;2023-03-13T03:39:24;100347.78;;;-2.80;100.00
35045;BME280;21231;48.394;34.964;2023-03-13T03:41:53;100355.72;;;-2.77;100.00
35045;BME280;21231;48.394;34.964;2023-03-13T03:44:25;100366.00;;;-2.82;100.00
35045;BME280;21231;48.394;34.964;2023-03-13T03:46:56;100359.03;;;-2.92;100.00
35045;BME280;21231;48.394;34.964;2023-03-13T03:49:27;100371.50;;;-2.94;100.00
35045;BME280;21231;48.394;34.964;2023-03-13T03:51:56;100382.09;;;-2.96;100.00
35045;BME280;21231;48.394;34.964;2023-03-13T03:54:30;100376.00;;;-2.98;100.00
35045;BME280;21231;48.394;34.964;2023-03-13T03:56:59;100386.09;;;-2.98;100.00
35045;BME280;21231;48.394;34.964;2023-03-13T03:59:28;100395.66;;;-3.03;100.00
35045;BME280;21231;48.394;34.964;2023-03-13T04:02:06;100394.44;;;-3.14;100.00
35045;BME280;21231;48.394;34.964;2023-03-13T04:04:35;100406.16;;;-3.14;100.00
35045;BME280;21231;48.394;34.964;2023-03-13T04:07:24;100408.88;;;-3.20;100.00
35045;BME280;21231;48.394;34.964;2023-03-13T04:09:53;100429.97;;;-3.20;100.00
35045;BME280;21231;48.394;34.964;2023-03-13T04:12:32;100420.25;;;-3.24;100.00
35045;BME280;21231;48.394;34.964;2023-03-13T04:15:00;100424.31;;;-3.10;100.00
35045;BME280;21231;48.394;34.964;2023-03-13T04:17:29;100430.09;;;-3.11;100.00
35045;BME280;21231;48.394;34.964;2023-03-13T04:19:59;100439.44;;;-3.10;100.00
35045;BME280;21231;48.394;34.964;2023-03-13T04:22:30;100444.66;;;-3.08;100.00
35045;BME280;21231;48.394;34.964;2023-03-13T04:24:59;100450.81;;;-3.06;100.00
35045;BME280;21231;48.394;34.964;2023-03-13T04:27:31;100450.06;;;-3.05;100.00
35045;BME280;21231;48.394;34.964;2023-03-13T04:30:01;100456.72;;;-2.98;100.00
35045;BME280;21231;48.394;34.964;2023-03-13T04:32:44;100460.66;;;-2.93;100.00
35045;BME280;21231;48.394;34.964;2023-03-13T04:35:29;100463.84;;;-2.80;100.00
35045;BME280;21231;48.394;34.964;2023-03-13T04:38:14;100461.28;;;-2.72;100.00
35045;BME280;21231;48.394;34.964;2023-03-13T04:41:08;100463.91;;;-2.56;100.00
35045;BME280;21231;48.394;34.964;2023-03-13T04:43:55;100472.88;;;-2.44;100.00
35045;BME280;21231;48.394;34.964;2023-03-13T04:46:56;100479.56;;;-2.21;100.00
35045;BME280;21231;48.394;34.964;2023-03-13T04:49:37;100478.78;;;-2.05;100.00
35045;BME280;21231;48.394;34.964;2023-03-13T04:52:25;100476.75;;;-1.77;100.00
35045;BME280;21231;48.394;34.964;2023-03-13T04:54:56;100489.63;;;-0.56;100.00
35045;BME280;21231;48.394;34.964;2023-03-13T04:57:45;100476.13;;;0.79;100.00
35045;BME280;21231;48.394;34.964;2023-03-13T05:00:32;100483.22;;;1.52;100.00
35045;BME280;21231;48.394;34.964;2023-03-13T05:03:29;100485.00;;;2.35;100.00
35045;BME280;21231;48.394;34.964;2023-03-13T05:06:17;100493.00;;;2.76;100.00
35045;BME280;21231;48.394;34.964;2023-03-13T05:09:24;100499.69;;;3.13;100.00
35045;BME280;21231;48.394;34.964;2023-03-13T05:12:08;100519.72;;;3.38;100.00
35045;BME280;21231;48.394;34.964;2023-03-13T05:15:06;100530.00;;;3.86;100.00
35045;BME280;21231;48.394;34.964;2023-03-13T05:17:55;100546.09;;;3.96;100.00
35045;BME280;21231;48.394;34.964;2023-03-13T05:20:43;100557.84;;;4.23;100.00
35045;BME280;21231;48.394;34.964;2023-03-13T05:23:32;100569.91;;;4.96;100.00
35045;BME280;21231;48.394;34.964;2023-03-13T05:26:07;100574.69;;;4.72;100.00
35045;BME280;21231;48.394;34.964;2023-03-13T05:28:59;100589.22;;;4.62;100.00
35045;BME280;21231;48.394;34.964;2023-03-13T05:31:50;100595.19;;;4.92;100.00
35045;BME280;21231;48.394;34.964;2023-03-13T05:34:36;100597.28;;;5.49;100.00
35045;BME280;21231;48.394;34.964;2023-03-13T05:37:22;100600.84;;;5.30;100.00
35045;BME280;21231;48.394;34.964;2023-03-13T05:39:59;100603.75;;;5.87;100.00
35045;BME280;21231;48.394;34.964;2023-03-13T05:42:39;100619.63;;;5.30;100.00
35045;BME280;21231;48.394;34.964;2023-03-13T05:45:28;100615.19;;;5.38;100.00
35045;BME280;21231;48.394;34.964;2023-03-13T05:48:15;100620.91;;;5.25;100.00
35045;BME280;21231;48.394;34.964;2023-03-13T05:51:13;100628.56;;;5.15;100.00
35045;BME280;21231;48.394;34.964;2023-03-13T05:53:44;100623.13;;;4.91;100.00
35045;BME280;21231;48.394;34.964;2023-03-13T05:56:30;100628.28;;;4.61;100.00
35045;BME280;21231;48.394;34.964;2023-03-13T05:59:18;100633.94;;;4.38;100.00
35045;BME280;21231;48.394;34.964;2023-03-13T06:02:10;100633.81;;;4.66;100.00
35045;BME280;21231;48.394;34.964;2023-03-13T06:04:43;100633.53;;;5.03;100.00
35045;BME280;21231;48.394;34.964;2023-03-13T06:07:12;100629.09;;;4.71;100.00
35045;BME280;21231;48.394;34.964;2023-03-13T06:09:40;100644.63;;;4.93;100.00
35045;BME280;21231;48.394;34.964;2023-03-13T06:12:10;100643.63;;;5.01;100.00
35045;BME280;21231;48.394;34.964;2023-03-13T06:14:41;100656.06;;;5.38;100.00
35045;BME280;21231;48.394;34.964;2023-03-13T06:17:09;100654.53;;;5.82;100.00
35045;BME280;21231;48.394;34.964;2023-03-13T06:19:38;100666.44;;;5.40;100.00
35045;BME280;21231;48.394;34.964;2023-03-13T06:22:06;100676.16;;;5.65;100.00
35045;BME280;21231;48.394;34.964;2023-03-13T06:24:35;100675.06;;;5.11;100.00
35045;BME280;21231;48.394;34.964;2023-03-13T06:27:03;100681.38;;;5.25;100.00
35045;BME280;21231;48.394;34.964;2023-03-13T06:29:32;100674.56;;;5.25;100.00
35045;BME280;21231;48.394;34.964;2023-03-13T06:32:01;100682.03;;;5.84;100.00
35045;BME280;21231;48.394;34.964;2023-03-13T06:34:29;100688.25;;;5.26;100.00
35045;BME280;21231;48.394;34.964;2023-03-13T06:36:57;100689.53;;;5.41;100.00
35045;BME280;21231;48.394;34.964;2023-03-13T06:39:27;100683.28;;;5.27;100.00
35045;BME280;21231;48.394;34.964;2023-03-13T06:41:55;100698.53;;;5.47;100.00
35045;BME280;21231;48.394;34.964;2023-03-13T06:44:24;100696.97;;;5.49;100.00
35045;BME280;21231;48.394;34.964;2023-03-13T06:46:52;100706.09;;;5.76;100.00
35045;BME280;21231;48.394;34.964;2023-03-13T06:49:20;100706.16;;;6.40;100.00
35045;BME280;21231;48.394;34.964;2023-03-13T06:51:48;100701.88;;;6.61;100.00
35045;BME280;21231;48.394;34.964;2023-03-13T06:54:17;100711.88;;;6.91;100.00
35045;BME280;21231;48.394;34.964;2023-03-13T06:56:51;100712.59;;;7.00;100.00
35045;BME280;21231;48.394;34.964;2023-03-13T06:59:19;100727.63;;;6.96;100.00
35045;BME280;21231;48.394;34.964;2023-03-13T07:01:47;100730.53;;;6.68;100.00
35045;BME280;21231;48.394;34.964;2023-03-13T07:04:16;100738.03;;;6.33;100.00
35045;BME280;21231;48.394;34.964;2023-03-13T07:06:47;100736.53;;;6.15;100.00
35045;BME280;21231;48.394;34.964;2023-03-13T07:09:18;100736.00;;;6.08;100.00
35045;BME280;21231;48.394;34.964;2023-03-13T07:11:47;100746.09;;;6.38;100.00
35045;BME280;21231;48.394;34.964;2023-03-13T07:14:16;100735.84;;;6.48;100.00
35045;BME280;21231;48.394;34.964;2023-03-13T07:16:45;100737.47;;;6.58;100.00
35045;BME280;21231;48.394;34.964;2023-03-13T07:19:14;100733.47;;;6.72;100.00
35045;BME280;21231;48.394;34.964;2023-03-13T07:21:42;100743.16;;;6.13;100.00
35045;BME280;21231;48.394;34.964;2023-03-13T07:24:12;100746.50;;;6.32;100.00
35045;BME280;21231;48.394;34.964;2023-03-13T07:26:40;100737.44;;;7.12;100.00
35045;BME280;21231;48.394;34.964;2023-03-13T07:29:27;100740.72;;;7.44;100.00
35045;BME280;21231;48.394;34.964;2023-03-13T07:31:55;100737.53;;;7.81;100.00
35045;BME280;21231;48.394;34.964;2023-03-13T07:34:24;100737.56;;;7.13;100.00
35045;BME280;21231;48.394;34.964;2023-03-13T07:36:52;100740.19;;;7.25;100.00
35045;BME280;21231;48.394;34.964;2023-03-13T07:39:20;100740.63;;;7.32;100.00
35045;BME280;21231;48.394;34.964;2023-03-13T07:41:49;100735.78;;;7.12;100.00
35045;BME280;21231;48.394;34.964;2023-03-13T07:44:17;100744.00;;;6.98;100.00
35045;BME280;21231;48.394;34.964;2023-03-13T07:46:45;100746.63;;;6.87;100.00
35045;BME280;21231;48.394;34.964;2023-03-13T07:49:15;100752.00;;;6.37;100.00
35045;BME280;21231;48.394;34.964;2023-03-13T07:51:43;100756.09;;;6.45;100.00
35045;BME280;21231;48.394;34.964;2023-03-13T07:54:15;100753.75;;;6.48;100.00
35045;BME280;21231;48.394;34.964;2023-03-13T07:56:43;100758.28;;;6.20;100.00
35045;BME280;21231;48.394;34.964;2023-03-13T07:59:11;100754.16;;;5.91;100.00
35045;BME280;21231;48.394;34.964;2023-03-13T08:01:40;100754.31;;;6.03;100.00
35045;BME280;21231;48.394;34.964;2023-03-13T08:04:11;100749.81;;;6.31;100.00
35045;BME280;21231;48.394;34.964;2023-03-13T08:06:40;100758.91;;;6.28;100.00
35045;BME280;21231;48.394;34.964;2023-03-13T08:09:12;100752.00;;;6.27;100.00
35045;BME280;21231;48.394;34.964;2023-03-13T08:11:40;100746.38;;;6.84;100.00
35045;BME280;21231;48.394;34.964;2023-03-13T08:14:12;100757.81;;;7.10;100.00
35045;BME280;21231;48.394;34.964;2023-03-13T08:16:40;100754.16;;;6.53;100.00
35045;BME280;21231;48.394;34.964;2023-03-13T08:19:09;100755.91;;;7.08;100.00
35045;BME280;21231;48.394;34.964;2023-03-13T08:21:37;100761.34;;;7.23;100.00
35045;BME280;21231;48.394;34.964;2023-03-13T08:24:07;100758.13;;;7.25;100.00
35045;BME280;21231;48.394;34.964;2023-03-13T08:26:37;100764.75;;;6.58;100.00
35045;BME280;21231;48.394;34.964;2023-03-13T08:29:11;100771.81;;;6.50;100.00
35045;BME280;21231;48.394;34.964;2023-03-13T08:31:48;100781.94;;;6.28;100.00
35045;BME280;21231;48.394;34.964;2023-03-13T08:34:18;100778.09;;;6.97;100.00
35045;BME280;21231;48.394;34.964;2023-03-13T08:36:50;100776.53;;;7.64;100.00
35045;BME280;21231;48.394;34.964;2023-03-13T08:39:20;100783.31;;;7.09;100.00
35045;BME280;21231;48.394;34.964;2023-03-13T08:41:49;100781.25;;;7.37;100.00
35045;BME280;21231;48.394;34.964;2023-03-13T08:44:18;100790.84;;;7.40;100.00
35045;BME280;21231;48.394;34.964;2023-03-13T08:46:47;100789.25;;;7.30;100.00
35045;BME280;21231;48.394;34.964;2023-03-13T08:49:16;100785.50;;;7.82;100.00
35045;BME280;21231;48.394;34.964;2023-03-13T08:51:44;100796.06;;;7.97;100.00
35045;BME280;21231;48.394;34.964;2023-03-13T08:54:12;100789.47;;;8.23;100.00
35045;BME280;21231;48.394;34.964;2023-03-13T08:56:41;100794.22;;;7.84;100.00
35045;BME280;21231;48.394;34.964;2023-03-13T08:59:10;100789.47;;;8.23;100.00
35045;BME280;21231;48.394;34.964;2023-03-13T09:01:40;100797.31;;;8.02;100.00
35045;BME280;21231;48.394;34.964;2023-03-13T09:04:08;100793.84;;;7.79;100.00
35045;BME280;21231;48.394;34.964;2023-03-13T09:06:37;100783.09;;;8.17;100.00
35045;BME280;21231;48.394;34.964;2023-03-13T09:09:06;100792.41;;;8.39;100.00
35045;BME280;21231;48.394;34.964;2023-03-13T09:11:36;100792.88;;;8.81;100.00
35045;BME280;21231;48.394;34.964;2023-03-13T09:14:05;100791.53;;;8.75;100.00
35045;BME280;21231;48.394;34.964;2023-03-13T09:16:34;100798.69;;;8.79;100.00
35045;BME280;21231;48.394;34.964;2023-03-13T09:19:02;100786.16;;;9.07;100.00
35045;BME280;21231;48.394;34.964;2023-03-13T09:21:33;100794.78;;;9.08;100.00
35045;BME280;21231;48.394;34.964;2023-03-13T09:24:02;100789.63;;;8.84;100.00
35045;BME280;21231;48.394;34.964;2023-03-13T09:26:30;100798.88;;;7.77;100.00
35045;BME280;21231;48.394;34.964;2023-03-13T09:29:02;100795.91;;;7.28;100.00
35045;BME280;21231;48.394;34.964;2023-03-13T09:31:31;100801.25;;;6.66;100.00
35045;BME280;21231;48.394;34.964;2023-03-13T09:34:00;100795.00;;;6.41;100.00
35045;BME280;21231;48.394;34.964;2023-03-13T09:36:29;100798.56;;;6.43;100.00
35045;BME280;21231;48.394;34.964;2023-03-13T09:38:58;100799.25;;;6.30;100.00
35045;BME280;21231;48.394;34.964;2023-03-13T09:44:10;100805.00;;;6.07;100.00
35045;BME280;21231;48.394;34.964;2023-03-13T09:49:37;100799.34;;;6.21;100.00
35045;BME280;21231;48.394;34.964;2023-03-13T09:52:36;100798.97;;;6.27;100.00
35045;BME280;21231;48.394;34.964;2023-03-13T09:55:18;100801.91;;;6.21;100.00
35045;BME280;21231;48.394;34.964;2023-03-13T09:57:54;100794.59;;;5.95;100.00
35045;BME280;21231;48.394;34.964;2023-03-13T10:00:26;100792.03;;;5.74;100.00
35045;BME280;21231;48.394;34.964;2023-03-13T10:03:04;100794.50;;;5.43;100.00
35045;BME280;21231;48.394;34.964;2023-03-13T10:05:36;100796.81;;;5.50;100.00
35045;BME280;21231;48.394;34.964;2023-03-13T10:10:56;100795.06;;;5.60;100.00
35045;BME280;21231;48.394;34.964;2023-03-13T10:13:33;100789.44;;;5.64;100.00
35045;BME280;21231;48.394;34.964;2023-03-13T10:16:10;100785.22;;;5.64;100.00
35045;BME280;21231;48.394;34.964;2023-03-13T10:18:47;100792.03;;;5.84;100.00
35045;BME280;21231;48.394;34.964;2023-03-13T10:21:21;100785.09;;;5.63;100.00
35045;BME280;21231;48.394;34.964;2023-03-13T10:23:59;100786.59;;;5.61;100.00
35045;BME280;21231;48.394;34.964;2023-03-13T10:26:33;100780.06;;;5.54;100.00
35045;BME280;21231;48.394;34.964;2023-03-13T10:29:23;100786.81;;;5.43;100.00
35045;BME280;21231;48.394;34.964;2023-03-13T10:32:04;100785.69;;;5.50;100.00
35045;BME280;21231;48.394;34.964;2023-03-13T10:34:56;100793.84;;;5.96;100.00
35045;BME280;21231;48.394;34.964;2023-03-13T10:37:28;100786.19;;;5.96;100.00
35045;BME280;21231;48.394;34.964;2023-03-13T10:40:23;100786.16;;;5.86;100.00
35045;BME280;21231;48.394;34.964;2023-03-13T10:42:59;100779.53;;;5.88;100.00
35045;BME280;21231;48.394;34.964;2023-03-13T10:45:31;100781.03;;;5.75;100.00
35045;BME280;21231;48.394;34.964;2023-03-13T10:48:15;100781.63;;;5.62;100.00
35045;BME280;21231;48.394;34.964;2023-03-13T10:50:48;100773.09;;;5.82;100.00
35045;BME280;21231;48.394;34.964;2023-03-13T10:53:24;100784.09;;;5.81;100.00
35045;BME280;21231;48.394;34.964;2023-03-13T10:55:54;100775.69;;;5.93;100.00
35045;BME280;21231;48.394;34.964;2023-03-13T10:58:54;100775.31;;;5.99;100.00
35045;BME280;21231;48.394;34.964;2023-03-13T11:01:28;100776.69;;;5.95;100.00
35045;BME280;21231;48.394;34.964;2023-03-13T11:04:18;100773.63;;;5.99;100.00
35045;BME280;21231;48.394;34.964;2023-03-13T11:06:50;100780.03;;;6.15;100.00
35045;BME280;21231;48.394;34.964;2023-03-13T11:09:24;100769.50;;;6.43;100.00
35045;BME280;21231;48.394;34.964;2023-03-13T11:12:02;100769.63;;;6.44;100.00
35045;BME280;21231;48.394;34.964;2023-03-13T11:14:31;100767.75;;;6.31;100.00
35045;BME280;21231;48.394;34.964;2023-03-13T11:25:34;100757.63;;;5.91;100.00
35045;BME280;21231;48.394;34.964;2023-03-13T11:31:29;100763.16;;;5.96;100.00
35045;BME280;21231;48.394;34.964;2023-03-13T11:34:20;100759.94;;;5.78;100.00
35045;BME280;21231;48.394;34.964;2023-03-13T11:39:50;100760.31;;;6.03;100.00
35045;BME280;21231;48.394;34.964;2023-03-13T11:46:07;100763.50;;;5.69;100.00
35045;BME280;21231;48.394;34.964;2023-03-13T11:49:02;100754.31;;;5.82;100.00
35045;BME280;21231;48.394;34.964;2023-03-13T11:54:54;100750.34;;;6.06;100.00
35045;BME280;21231;48.394;34.964;2023-03-13T11:57:31;100762.34;;;5.87;100.00
35045;BME280;21231;48.394;34.964;2023-03-13T12:00:39;100760.31;;;5.82;100.00
35045;BME280;21231;48.394;34.964;2023-03-13T12:03:10;100762.84;;;5.62;100.00
35045;BME280;21231;48.394;34.964;2023-03-13T12:05:53;100751.63;;;6.01;100.00
35045;BME280;21231;48.394;34.964;2023-03-13T12:13:53;100764.44;;;6.01;100.00
35045;BME280;21231;48.394;34.964;2023-03-13T12:16:41;100758.66;;;5.83;100.00
35045;BME280;21231;48.394;34.964;2023-03-13T12:19:14;100754.31;;;5.82;100.00
35045;BME280;21231;48.394;34.964;2023-03-13T12:21:52;100753.16;;;5.89;100.00
35045;BME280;21231;48.394;34.964;2023-03-13T12:24:28;100759.44;;;6.03;100.00
35045;BME280;21231;48.394;34.964;2023-03-13T12:27:04;100765.97;;;5.78;100.00
35045;BME280;21231;48.394;34.964;2023-03-13T12:32:35;100765.69;;;6.17;100.00
35045;BME280;21231;48.394;34.964;2023-03-13T12:35:14;100771.31;;;6.02;100.00
35045;BME280;21231;48.394;34.964;2023-03-13T12:43:43;100771.06;;;5.89;100.00
35045;BME280;21231;48.394;34.964;2023-03-13T12:54:46;100772.06;;;5.80;100.00
35045;BME280;21231;48.394;34.964;2023-03-13T13:00:21;100764.91;;;5.76;100.00
35045;BME280;21231;48.394;34.964;2023-03-13T13:17:10;100773.00;;;5.81;100.00
35045;BME280;21231;48.394;34.964;2023-03-13T13:19:45;100766.69;;;5.67;100.00
35045;BME280;21231;48.394;34.964;2023-03-13T13:32:51;100767.88;;;5.91;100.00
35045;BME280;21231;48.394;34.964;2023-03-13T13:38:20;100770.25;;;5.69;100.00
35045;BME280;21231;48.394;34.964;2023-03-13T13:41:23;100756.22;;;5.74;100.00
35045;BME280;21231;48.394;34.964;2023-03-13T13:44:22;100757.88;;;5.74;100.00
35045;BME280;21231;48.394;34.964;2023-03-13T13:46:52;100756.97;;;5.73;100.00
35045;BME280;21231;48.394;34.964;2023-03-13T13:49:24;100765.97;;;5.78;100.00
35045;BME280;21231;48.394;34.964;2023-03-13T13:54:51;100764.00;;;5.76;100.00
35045;BME280;21231;48.394;34.964;2023-03-13T13:57:23;100764.63;;;5.73;100.00
35045;BME280;21231;48.394;34.964;2023-03-13T14:05:25;100756.97;;;5.63;100.00
35045;BME280;21231;48.394;34.964;2023-03-13T14:08:03;100754.69;;;5.66;100.00
35045;BME280;21231;48.394;34.964;2023-03-13T14:13:02;100756.69;;;5.49;100.00
35045;BME280;21231;48.394;34.964;2023-03-13T14:15:33;100755.13;;;5.41;100.00
35045;BME280;21231;48.394;34.964;2023-03-13T14:20:54;100759.59;;;5.43;100.00
35045;BME280;21231;48.394;34.964;2023-03-13T14:26:22;100757.69;;;5.41;100.00
35045;BME280;21231;48.394;34.964;2023-03-13T14:28:57;100753.56;;;5.32;100.00
35045;BME280;21231;48.394;34.964;2023-03-13T14:31:32;100760.47;;;5.34;100.00
35045;BME280;21231;48.394;34.964;2023-03-13T14:34:07;100751.66;;;5.30;100.00
35045;BME280;21231;48.394;34.964;2023-03-13T14:36:57;100747.16;;;5.27;100.00
35045;BME280;21231;48.394;34.964;2023-03-13T14:39:44;100754.84;;;5.27;100.00
35045;BME280;21231;48.394;34.964;2023-03-13T14:42:17;100753.66;;;5.24;100.00
35045;BME280;21231;48.394;34.964;2023-03-13T14:44:53;100753.91;;;5.16;100.00
35045;BME280;21231;48.394;34.964;2023-03-13T14:47:28;100759.59;;;5.03;100.00
35045;BME280;21231;48.394;34.964;2023-03-13T14:50:02;100762.16;;;5.03;100.00
35045;BME280;21231;48.394;34.964;2023-03-13T14:52:34;100763.94;;;5.04;100.00
35045;BME280;21231;48.394;34.964;2023-03-13T14:55:06;100752.97;;;5.05;100.00
35045;BME280;21231;48.394;34.964;2023-03-13T14:58:05;100762.91;;;5.02;100.00
35045;BME280;21231;48.394;34.964;2023-03-13T15:00:49;100755.22;;;4.92;100.00